sensor_id;sensor_type;location;lat;lon;timestamp;pressure;altitude;pressure_sealevel;temperature;humidity
59103;BME280;43999;51.660;5.616;2022-11-20T00:01:32;101120.72;;;-2.87;100.00
59103;BME280;43999;51.660;5.616;2022-11-20T00:04:00;101118.13;;;-2.89;100.00
59103;BME280;43999;51.660;5.616;2022-11-20T00:06:30;101112.16;;;-2.91;100.00
59103;BME280;43999;51.660;5.616;2022-11-20T00:08:59;101113.84;;;-2.94;100.00
59103;BME280;43999;51.660;5.616;2022-11-20T00:11:29;101114.69;;;-2.95;100.00
59103;BME280;43999;51.660;5.616;2022-11-20T00:14:00;101108.69;;;-2.99;100.00
59103;BME280;43999;51.660;5.616;2022-11-20T00:16:31;101111.25;;;-3.00;100.00
59103;BME280;43999;51.660;5.616;2022-11-20T00:18:59;101117.22;;;-3.03;100.00
59103;BME280;43999;51.660;5.616;2022-11-20T00:21:27;101102.66;;;-3.06;100.00
59103;BME280;43999;51.660;5.616;2022-11-20T00:23:57;101103.53;;;-3.07;100.00
59103;BME280;43999;51.660;5.616;2022-11-20T00:26:26;101106.06;;;-3.10;100.00
59103;BME280;43999;51.660;5.616;2022-11-20T00:28:58;101108.63;;;-3.11;100.00
59103;BME280;43999;51.660;5.616;2022-11-20T00:31:28;101100.03;;;-3.13;100.00
59103;BME280;43999;51.660;5.616;2022-11-20T00:33:56;101105.16;;;-3.13;100.00
59103;BME280;43999;51.660;5.616;2022-11-20T00:36:26;101101.75;;;-3.15;100.00
59103;BME280;43999;51.660;5.616;2022-11-20T00:38:59;101100.00;;;-3.16;100.00
59103;BME280;43999;51.660;5.616;2022-11-20T00:41:28;101089.75;;;-3.18;100.00
59103;BME280;43999;51.660;5.616;2022-11-20T00:43:56;101091.47;;;-3.18;100.00
59103;BME280;43999;51.660;5.616;2022-11-20T00:46:26;101089.72;;;-3.21;100.00
59103;BME280;43999;51.660;5.616;2022-11-20T00:48:55;101102.53;;;-3.22;100.00
59103;BME280;43999;51.660;5.616;2022-11-20T00:51:25;101100.84;;;-3.25;100.00
59103;BME280;43999;51.660;5.616;2022-11-20T00:53:58;101094.00;;;-3.25;100.00
59103;BME280;43999;51.660;5.616;2022-11-20T00:56:27;101101.69;;;-3.25;100.00
59103;BME280;43999;51.660;5.616;2022-11-20T00:58:55;101095.69;;;-3.28;100.00
59103;BME280;43999;51.660;5.616;2022-11-20T01:01:25;101093.09;;;-3.30;100.00
59103;BME280;43999;51.660;5.616;2022-11-20T01:03:56;101079.41;;;-3.30;100.00
59103;BME280;43999;51.660;5.616;2022-11-20T01:06:28;101077.75;;;-3.28;100.00
59103;BME280;43999;51.660;5.616;2022-11-20T01:09:00;101077.75;;;-3.27;100.00
59103;BME280;43999;51.660;5.616;2022-11-20T01:11:32;101079.41;;;-3.30;100.00
59103;BME280;43999;51.660;5.616;2022-11-20T01:14:05;101087.09;;;-3.33;100.00
59103;BME280;43999;51.660;5.616;2022-11-20T01:16:36;101077.72;;;-3.33;100.00
59103;BME280;43999;51.660;5.616;2022-11-20T01:19:10;101077.72;;;-3.33;100.00
59103;BME280;43999;51.660;5.616;2022-11-20T01:21:46;101075.16;;;-3.33;100.00
59103;BME280;43999;51.660;5.616;2022-11-20T01:24:17;101071.72;;;-3.33;100.00
59103;BME280;43999;51.660;5.616;2022-11-20T01:26:49;101082.84;;;-3.31;100.00
59103;BME280;43999;51.660;5.616;2022-11-20T01:29:20;101084.53;;;-3.33;100.00
59103;BME280;43999;51.660;5.616;2022-11-20T01:31:51;101086.22;;;-3.34;100.00
59103;BME280;43999;51.660;5.616;2022-11-20T01:34:21;101084.50;;;-3.35;100.00
59103;BME280;43999;51.660;5.616;2022-11-20T01:36:50;101093.09;;;-3.33;100.00
59103;BME280;43999;51.660;5.616;2022-11-20T01:39:22;101089.66;;;-3.32;100.00
59103;BME280;43999;51.660;5.616;2022-11-20T01:41:53;101093.09;;;-3.30;100.00
59103;BME280;43999;51.660;5.616;2022-11-20T01:44:51;101088.00;;;-3.28;100.00
59103;BME280;43999;51.660;5.616;2022-11-20T01:47:25;101088.00;;;-3.27;100.00
59103;BME280;43999;51.660;5.616;2022-11-20T01:50:06;101083.72;;;-3.26;100.00
59103;BME280;43999;51.660;5.616;2022-11-20T01:52:48;101088.88;;;-3.25;100.00
59103;BME280;43999;51.660;5.616;2022-11-20T01:55:26;101081.16;;;-3.26;100.00
59103;BME280;43999;51.660;5.616;2022-11-20T01:57:58;101084.56;;;-3.27;100.00
59103;BME280;43999;51.660;5.616;2022-11-20T02:00:28;101087.13;;;-3.27;100.00
59103;BME280;43999;51.660;5.616;2022-11-20T02:02:58;101093.13;;;-3.27;100.00
59103;BME280;43999;51.660;5.616;2022-11-20T02:08:24;101093.97;;;-3.29;100.00
59103;BME280;43999;51.660;5.616;2022-11-20T02:10:51;101084.53;;;-3.30;100.00
59103;BME280;43999;51.660;5.616;2022-11-20T02:13:19;101092.25;;;-3.29;100.00
59103;BME280;43999;51.660;5.616;2022-11-20T02:16:10;101082.84;;;-3.31;100.00
59103;BME280;43999;51.660;5.616;2022-11-20T02:19:01;101078.56;;;-3.32;100.00
59103;BME280;43999;51.660;5.616;2022-11-20T02:21:47;101084.53;;;-3.33;100.00
59103;BME280;43999;51.660;5.616;2022-11-20T02:24:25;101086.22;;;-3.37;100.00
59103;BME280;43999;51.660;5.616;2022-11-20T02:27:10;101087.91;;;-3.40;100.00
59103;BME280;43999;51.660;5.616;2022-11-20T02:29:42;101075.94;;;-3.42;100.00
59103;BME280;43999;51.660;5.616;2022-11-20T02:34:50;101075.03;;;-3.48;100.00
59103;BME280;43999;51.660;5.616;2022-11-20T02:37:18;101075.03;;;-3.50;100.00
59103;BME280;43999;51.660;5.616;2022-11-20T02:39:50;101069.88;;;-3.51;100.00
59103;BME280;43999;51.660;5.616;2022-11-20T02:42:19;101064.75;;;-3.53;100.00
59103;BME280;43999;51.660;5.616;2022-11-20T02:44:47;101062.19;;;-3.54;100.00
59103;BME280;43999;51.660;5.616;2022-11-20T02:47:14;101068.16;;;-3.54;100.00
59103;BME280;43999;51.660;5.616;2022-11-20T02:49:41;101069.84;;;-3.56;100.00
59103;BME280;43999;51.660;5.616;2022-11-20T02:52:09;101073.25;;;-3.57;100.00
59103;BME280;43999;51.660;5.616;2022-11-20T02:54:36;101075.78;;;-3.58;100.00
59103;BME280;43999;51.660;5.616;2022-11-20T02:57:03;101068.94;;;-3.61;100.00
59103;BME280;43999;51.660;5.616;2022-11-20T02:59:31;101074.91;;;-3.64;100.00
59103;BME280;43999;51.660;5.616;2022-11-20T03:01:58;101073.16;;;-3.66;100.00
59103;BME280;43999;51.660;5.616;2022-11-20T03:04:26;101068.03;;;-3.69;100.00
59103;BME280;43999;51.660;5.616;2022-11-20T03:06:54;101070.56;;;-3.71;100.00
59103;BME280;43999;51.660;5.616;2022-11-20T03:09:22;101069.69;;;-3.74;100.00
59103;BME280;43999;51.660;5.616;2022-11-20T03:11:50;101065.41;;;-3.75;100.00
59103;BME280;43999;51.660;5.616;2022-11-20T03:14:17;101063.66;;;-3.78;100.00
59103;BME280;43999;51.660;5.616;2022-11-20T03:16:48;101069.63;;;-3.82;100.00
59103;BME280;43999;51.660;5.616;2022-11-20T03:19:15;101068.75;;;-3.83;100.00
59103;BME280;43999;51.660;5.616;2022-11-20T03:21:42;101061.94;;;-3.84;100.00
59103;BME280;43999;51.660;5.616;2022-11-20T03:24:10;101059.38;;;-3.84;100.00
59103;BME280;43999;51.660;5.616;2022-11-20T03:26:39;101066.19;;;-3.84;100.00
59103;BME280;43999;51.660;5.616;2022-11-20T03:29:06;101058.50;;;-3.84;100.00
59103;BME280;43999;51.660;5.616;2022-11-20T03:31:36;101055.09;;;-3.85;100.00
59103;BME280;43999;51.660;5.616;2022-11-20T03:34:10;101053.34;;;-3.86;100.00
59103;BME280;43999;51.660;5.616;2022-11-20T03:36:40;101055.06;;;-3.86;100.00
59103;BME280;43999;51.660;5.616;2022-11-20T03:39:09;101049.09;;;-3.88;100.00
59103;BME280;43999;51.660;5.616;2022-11-20T03:41:39;101041.41;;;-3.88;100.00
59103;BME280;43999;51.660;5.616;2022-11-20T03:44:10;101037.97;;;-3.90;100.00
59103;BME280;43999;51.660;5.616;2022-11-20T03:46:39;101043.06;;;-3.92;100.00
59103;BME280;43999;51.660;5.616;2022-11-20T03:49:07;101045.59;;;-3.93;100.00
59103;BME280;43999;51.660;5.616;2022-11-20T03:51:36;101033.66;;;-3.96;100.00
59103;BME280;43999;51.660;5.616;2022-11-20T03:54:06;101028.53;;;-3.96;100.00
59103;BME280;43999;51.660;5.616;2022-11-20T03:56:37;101023.41;;;-3.98;100.00
59103;BME280;43999;51.660;5.616;2022-11-20T03:59:05;101019.09;;;-4.00;100.00
59103;BME280;43999;51.660;5.616;2022-11-20T04:01:35;101014.81;;;-4.04;100.00
59103;BME280;43999;51.660;5.616;2022-11-20T04:04:11;101012.25;;;-4.07;100.00
59103;BME280;43999;51.660;5.616;2022-11-20T04:06:39;101011.34;;;-4.08;100.00
59103;BME280;43999;51.660;5.616;2022-11-20T04:09:06;101013.06;;;-4.10;100.00
59103;BME280;43999;51.660;5.616;2022-11-20T04:11:36;101010.47;;;-4.11;100.00
59103;BME280;43999;51.660;5.616;2022-11-20T04:14:13;101006.19;;;-4.14;100.00
59103;BME280;43999;51.660;5.616;2022-11-20T04:16:43;101015.56;;;-4.15;100.00
59103;BME280;43999;51.660;5.616;2022-11-20T04:19:13;101017.28;;;-4.15;100.00
59103;BME280;43999;51.660;5.616;2022-11-20T04:21:43;101023.25;;;-4.16;100.00
59103;BME280;43999;51.660;5.616;2022-11-20T04:24:11;101016.41;;;-4.14;100.00
59103;BME280;43999;51.660;5.616;2022-11-20T04:26:39;101018.16;;;-4.13;100.00
59103;BME280;43999;51.660;5.616;2022-11-20T04:29:11;101014.75;;;-4.13;100.00
59103;BME280;43999;51.660;5.616;2022-11-20T04:31:39;101013.84;;;-4.16;100.00
59103;BME280;43999;51.660;5.616;2022-11-20T04:34:07;101021.50;;;-4.17;100.00
59103;BME280;43999;51.660;5.616;2022-11-20T04:36:35;101016.41;;;-4.16;100.00
59103;BME280;43999;51.660;5.616;2022-11-20T04:39:05;101012.16;;;-4.17;100.00
59103;BME280;43999;51.660;5.616;2022-11-20T04:41:35;101007.88;;;-4.16;100.00
59103;BME280;43999;51.660;5.616;2022-11-20T04:44:05;101011.28;;;-4.16;100.00
59103;BME280;43999;51.660;5.616;2022-11-20T04:46:42;101011.28;;;-4.16;100.00
59103;BME280;43999;51.660;5.616;2022-11-20T04:49:10;101012.16;;;-4.15;100.00
59103;BME280;43999;51.660;5.616;2022-11-20T04:51:39;101006.16;;;-4.17;100.00
59103;BME280;43999;51.660;5.616;2022-11-20T04:54:06;101007.03;;;-4.18;100.00
59103;BME280;43999;51.660;5.616;2022-11-20T04:56:36;101011.25;;;-4.19;100.00
59103;BME280;43999;51.660;5.616;2022-11-20T04:59:04;101007.84;;;-4.19;100.00
59103;BME280;43999;51.660;5.616;2022-11-20T05:01:32;101007.00;;;-4.21;100.00
59103;BME280;43999;51.660;5.616;2022-11-20T05:03:59;101003.53;;;-4.23;100.00
59103;BME280;43999;51.660;5.616;2022-11-20T05:06:27;100998.41;;;-4.23;100.00
59103;BME280;43999;51.660;5.616;2022-11-20T05:08:55;101002.69;;;-4.25;100.00
59103;BME280;43999;51.660;5.616;2022-11-20T05:11:22;100998.38;;;-4.28;100.00
59103;BME280;43999;51.660;5.616;2022-11-20T05:13:51;101000.91;;;-4.29;100.00
59103;BME280;43999;51.660;5.616;2022-11-20T05:16:22;100997.50;;;-4.30;100.00
59103;BME280;43999;51.660;5.616;2022-11-20T05:18:52;100989.84;;;-4.30;100.00
59103;BME280;43999;51.660;5.616;2022-11-20T05:21:22;100987.28;;;-4.30;100.00
59103;BME280;43999;51.660;5.616;2022-11-20T05:23:50;100981.34;;;-4.27;100.00
59103;BME280;43999;51.660;5.616;2022-11-20T05:26:20;100981.34;;;-4.27;100.00
59103;BME280;43999;51.660;5.616;2022-11-20T05:28:49;100977.06;;;-4.27;100.00
59103;BME280;43999;51.660;5.616;2022-11-20T05:31:20;100983.06;;;-4.23;100.00
59103;BME280;43999;51.660;5.616;2022-11-20T05:33:54;100972.88;;;-4.20;100.00
59103;BME280;43999;51.660;5.616;2022-11-20T05:36:23;100977.19;;;-4.16;100.00
59103;BME280;43999;51.660;5.616;2022-11-20T05:38:51;100977.19;;;-4.13;100.00
59103;BME280;43999;51.660;5.616;2022-11-20T05:41:26;100972.97;;;-4.08;100.00
59103;BME280;43999;51.660;5.616;2022-11-20T05:43:55;100977.28;;;-4.02;100.00
59103;BME280;43999;51.660;5.616;2022-11-20T05:46:23;100973.88;;;-4.03;100.00
59103;BME280;43999;51.660;5.616;2022-11-20T05:48:56;100967.91;;;-4.00;100.00
59103;BME280;43999;51.660;5.616;2022-11-20T05:51:25;100975.63;;;-3.96;100.00
59103;BME280;43999;51.660;5.616;2022-11-20T05:53:55;100973.94;;;-3.93;100.00
59103;BME280;43999;51.660;5.616;2022-11-20T05:56:24;100974.84;;;-3.90;100.00
59103;BME280;43999;51.660;5.616;2022-11-20T05:58:51;100979.97;;;-3.87;100.00
59103;BME280;43999;51.660;5.616;2022-11-20T06:01:24;100990.25;;;-3.81;100.00
59103;BME280;43999;51.660;5.616;2022-11-20T06:03:54;100992.00;;;-3.75;100.00
59103;BME280;43999;51.660;5.616;2022-11-20T06:06:22;100985.22;;;-3.68;100.00
59103;BME280;43999;51.660;5.616;2022-11-20T06:08:49;101001.50;;;-3.62;100.00
59103;BME280;43999;51.660;5.616;2022-11-20T06:11:17;100995.56;;;-3.57;100.00
59103;BME280;43999;51.660;5.616;2022-11-20T06:13:46;101002.38;;;-3.53;100.00
59103;BME280;43999;51.660;5.616;2022-11-20T06:16:17;101002.41;;;-3.50;100.00
59103;BME280;43999;51.660;5.616;2022-11-20T06:18:46;101000.75;;;-3.45;100.00
59103;BME280;43999;51.660;5.616;2022-11-20T06:21:17;100993.09;;;-3.40;100.00
59103;BME280;43999;51.660;5.616;2022-11-20T06:23:47;100999.09;;;-3.34;100.00
59103;BME280;43999;51.660;5.616;2022-11-20T06:26:18;100994.84;;;-3.32;100.00
59103;BME280;43999;51.660;5.616;2022-11-20T06:28:50;100989.72;;;-3.30;100.00
59103;BME280;43999;51.660;5.616;2022-11-20T06:31:21;100996.56;;;-3.31;100.00
59103;BME280;43999;51.660;5.616;2022-11-20T06:33:50;100998.28;;;-3.31;100.00
59103;BME280;43999;51.660;5.616;2022-11-20T06:36:21;101001.69;;;-3.32;100.00
59103;BME280;43999;51.660;5.616;2022-11-20T06:38:50;100989.72;;;-3.32;100.00
59103;BME280;43999;51.660;5.616;2022-11-20T06:41:20;100982.91;;;-3.31;100.00
59103;BME280;43999;51.660;5.616;2022-11-20T06:43:49;100986.31;;;-3.31;100.00
59103;BME280;43999;51.660;5.616;2022-11-20T06:46:18;100985.47;;;-3.30;100.00
59103;BME280;43999;51.660;5.616;2022-11-20T06:48:47;100986.31;;;-3.29;100.00
59103;BME280;43999;51.660;5.616;2022-11-20T06:51:16;100988.03;;;-3.28;100.00
59103;BME280;43999;51.660;5.616;2022-11-20T06:53:44;100985.50;;;-3.27;100.00
59103;BME280;43999;51.660;5.616;2022-11-20T06:56:12;100986.31;;;-3.29;100.00
59103;BME280;43999;51.660;5.616;2022-11-20T06:58:40;100986.34;;;-3.28;100.00
59103;BME280;43999;51.660;5.616;2022-11-20T07:01:10;100976.91;;;-3.30;100.00
59103;BME280;43999;51.660;5.616;2022-11-20T07:03:40;100976.06;;;-3.31;100.00
59103;BME280;43999;51.660;5.616;2022-11-20T07:06:09;100982.03;;;-3.30;100.00
59103;BME280;43999;51.660;5.616;2022-11-20T07:08:38;100983.75;;;-3.28;100.00
59103;BME280;43999;51.660;5.616;2022-11-20T07:11:11;100985.50;;;-3.23;100.00
59103;BME280;43999;51.660;5.616;2022-11-20T07:13:39;100976.13;;;-3.17;100.00
59103;BME280;43999;51.660;5.616;2022-11-20T07:16:08;100973.59;;;-3.12;100.00
59103;BME280;43999;51.660;5.616;2022-11-20T07:18:36;100965.06;;;-3.10;100.00
59103;BME280;43999;51.660;5.616;2022-11-20T07:21:09;100965.94;;;-3.06;100.00
59103;BME280;43999;51.660;5.616;2022-11-20T07:23:38;100952.25;;;-3.07;100.00
59103;BME280;43999;51.660;5.616;2022-11-20T07:26:06;100961.69;;;-2.99;100.00
59103;BME280;43999;51.660;5.616;2022-11-20T07:28:35;100969.38;;;-2.98;100.00
59103;BME280;43999;51.660;5.616;2022-11-20T07:31:03;100968.53;;;-2.97;100.00
59103;BME280;43999;51.660;5.616;2022-11-20T07:33:32;100968.53;;;-2.94;100.00
59103;BME280;43999;51.660;5.616;2022-11-20T07:36:00;100980.53;;;-2.88;100.00
59103;BME280;43999;51.660;5.616;2022-11-20T07:38:28;100970.31;;;-2.83;100.00
59103;BME280;43999;51.660;5.616;2022-11-20T07:40:57;100975.47;;;-2.74;100.00
59103;BME280;43999;51.660;5.616;2022-11-20T07:43:25;100973.75;;;-2.66;100.00
59103;BME280;43999;51.660;5.616;2022-11-20T07:45:56;100974.63;;;-2.59;100.00
59103;BME280;43999;51.660;5.616;2022-11-20T07:48:24;100978.94;;;-2.52;100.00
59103;BME280;43999;51.660;5.616;2022-11-20T07:50:56;100975.50;;;-2.46;100.00
59103;BME280;43999;51.660;5.616;2022-11-20T07:53:24;100973.81;;;-2.40;100.00
59103;BME280;43999;51.660;5.616;2022-11-20T07:55:52;100971.28;;;-2.32;100.00
59103;BME280;43999;51.660;5.616;2022-11-20T07:58:20;100986.69;;;-2.24;100.00
59103;BME280;43999;51.660;5.616;2022-11-20T08:00:48;100983.25;;;-2.17;100.00
59103;BME280;43999;51.660;5.616;2022-11-20T08:03:16;100979.00;;;-2.10;100.00
59103;BME280;43999;51.660;5.616;2022-11-20T08:05:51;100984.13;;;-2.03;100.00
59103;BME280;43999;51.660;5.616;2022-11-20T08:08:19;100990.13;;;-1.98;100.00
59103;BME280;43999;51.660;5.616;2022-11-20T08:10:47;100981.56;;;-1.92;100.00
59103;BME280;43999;51.660;5.616;2022-11-20T08:13:14;100972.97;;;-1.88;100.00
59103;BME280;43999;51.660;5.616;2022-11-20T08:16:00;100974.69;;;-1.81;100.00
59103;BME280;43999;51.660;5.616;2022-11-20T08:18:28;100962.69;;;-1.74;100.00
59103;BME280;43999;51.660;5.616;2022-11-20T08:21:02;100962.69;;;-1.68;100.00
59103;BME280;43999;51.660;5.616;2022-11-20T08:23:31;100959.25;;;-1.57;100.00
59103;BME280;43999;51.660;5.616;2022-11-20T08:25:59;100951.53;;;-1.51;100.00
59103;BME280;43999;51.660;5.616;2022-11-20T08:28:26;100950.66;;;-1.44;100.00
59103;BME280;43999;51.660;5.616;2022-11-20T08:31:01;100959.22;;;-1.37;100.00
59103;BME280;43999;51.660;5.616;2022-11-20T08:33:29;100959.19;;;-1.30;100.00
59103;BME280;43999;51.660;5.616;2022-11-20T08:36:00;100960.88;;;-1.26;100.00
59103;BME280;43999;51.660;5.616;2022-11-20T08:38:30;100966.88;;;-1.19;100.00
59103;BME280;43999;51.660;5.616;2022-11-20T08:41:00;100956.56;;;-1.14;100.00
59103;BME280;43999;51.660;5.616;2022-11-20T08:43:47;100956.56;;;-1.10;100.00
59103;BME280;43999;51.660;5.616;2022-11-20T08:46:15;100959.94;;;-1.04;100.00
59103;BME280;43999;51.660;5.616;2022-11-20T08:48:44;100955.63;;;-0.99;100.00
59103;BME280;43999;51.660;5.616;2022-11-20T08:51:12;100953.03;;;-0.92;100.00
59103;BME280;43999;51.660;5.616;2022-11-20T08:53:41;100960.72;;;-0.87;100.00
59103;BME280;43999;51.660;5.616;2022-11-20T08:56:09;100964.16;;;-0.83;100.00
59103;BME280;43999;51.660;5.616;2022-11-20T08:58:38;100967.53;;;-0.75;100.00
59103;BME280;43999;51.660;5.616;2022-11-20T09:01:27;100957.22;;;-0.69;100.00
59103;BME280;43999;51.660;5.616;2022-11-20T09:03:57;100946.03;;;-0.63;100.00
59103;BME280;43999;51.660;5.616;2022-11-20T09:06:25;100947.69;;;-0.58;100.00
59103;BME280;43999;51.660;5.616;2022-11-20T09:08:53;100944.25;;;-0.53;100.00
59103;BME280;43999;51.660;5.616;2022-11-20T09:11:21;100946.78;;;-0.47;100.00
59103;BME280;43999;51.660;5.616;2022-11-20T09:13:49;100938.16;;;-0.40;100.00
59103;BME280;43999;51.660;5.616;2022-11-20T09:16:17;100939.81;;;-0.33;100.00
59103;BME280;43999;51.660;5.616;2022-11-20T09:18:44;100941.50;;;-0.27;100.00
59103;BME280;43999;51.660;5.616;2022-11-20T09:21:13;100942.31;;;-0.24;100.00
59103;BME280;43999;51.660;5.616;2022-11-20T09:23:41;100938.88;;;-0.20;100.00
59103;BME280;43999;51.660;5.616;2022-11-20T09:26:13;100937.97;;;-0.12;100.00
59103;BME280;43999;51.660;5.616;2022-11-20T09:28:41;100937.03;;;-0.07;100.00
59103;BME280;43999;51.660;5.616;2022-11-20T09:31:17;100940.44;;;0.00;100.00
59103;BME280;43999;51.660;5.616;2022-11-20T09:33:49;100930.06;;;0.05;100.00
59103;BME280;43999;51.660;5.616;2022-11-20T09:36:18;100923.16;;;0.10;100.00
59103;BME280;43999;51.660;5.616;2022-11-20T09:38:46;100923.13;;;0.13;100.00
59103;BME280;43999;51.660;5.616;2022-11-20T09:47:24;100906.66;;;0.26;100.00
59103;BME280;43999;51.660;5.616;2022-11-20T09:55:42;100910.06;;;0.31;100.00
59103;BME280;43999;51.660;5.616;2022-11-20T09:58:32;100915.22;;;0.33;100.00
59103;BME280;43999;51.660;5.616;2022-11-20T10:01:11;100918.63;;;0.33;100.00
59103;BME280;43999;51.660;5.616;2022-11-20T10:04:04;100911.69;;;0.39;100.00
59103;BME280;43999;51.660;5.616;2022-11-20T10:10:03;100901.28;;;0.46;100.00
59103;BME280;43999;51.660;5.616;2022-11-20T10:16:17;100889.19;;;0.56;100.00
59103;BME280;43999;51.660;5.616;2022-11-20T10:31:37;100855.34;;;0.81;100.00
59103;BME280;43999;51.660;5.616;2022-11-20T10:37:23;100838.94;;;0.85;100.00
59103;BME280;43999;51.660;5.616;2022-11-20T10:42:49;100824.25;;;0.90;100.00
59103;BME280;43999;51.660;5.616;2022-11-20T10:48:23;100807.75;;;1.00;100.00
59103;BME280;43999;51.660;5.616;2022-11-20T10:59:55;100776.34;;;1.28;100.00
59103;BME280;43999;51.660;5.616;2022-11-20T11:02:43;100777.94;;;1.37;100.00
59103;BME280;43999;51.660;5.616;2022-11-20T11:05:42;100764.81;;;1.49;100.00
59103;BME280;43999;51.660;5.616;2022-11-20T11:08:18;100768.09;;;1.59;100.00
59103;BME280;43999;51.660;5.616;2022-11-20T11:11:00;100759.41;;;1.63;100.00
59103;BME280;43999;51.660;5.616;2022-11-20T11:13:31;100748.16;;;1.66;100.00
59103;BME280;43999;51.660;5.616;2022-11-20T11:15:58;100757.56;;;1.70;100.00
59103;BME280;43999;51.660;5.616;2022-11-20T11:20:59;100743.63;;;1.78;100.00
59103;BME280;43999;51.660;5.616;2022-11-20T11:26:22;100746.91;;;1.87;100.00
59103;BME280;43999;51.660;5.616;2022-11-20T11:28:58;100741.75;;;1.87;100.00
59103;BME280;43999;51.660;5.616;2022-11-20T11:31:30;100743.50;;;1.85;100.00
59103;BME280;43999;51.660;5.616;2022-11-20T11:34:16;100741.75;;;1.87;100.00
59103;BME280;43999;51.660;5.616;2022-11-20T11:36:58;100744.38;;;1.84;100.00
59103;BME280;43999;51.660;5.616;2022-11-20T11:39:29;100740.06;;;1.84;100.00
59103;BME280;43999;51.660;5.616;2022-11-20T11:42:01;100742.53;;;1.90;100.00
59103;BME280;43999;51.660;5.616;2022-11-20T11:44:31;100740.03;;;1.86;100.00
59103;BME280;43999;51.660;5.616;2022-11-20T11:47:26;100740.03;;;1.86;100.00
59103;BME280;43999;51.660;5.616;2022-11-20T11:52:49;100732.34;;;1.81;100.00
59103;BME280;43999;51.660;5.616;2022-11-20T12:07:32;100692.84;;;1.76;100.00
59103;BME280;43999;51.660;5.616;2022-11-20T12:10:21;100687.59;;;1.81;100.00
59103;BME280;43999;51.660;5.616;2022-11-20T12:15:48;100669.34;;;1.88;100.00
59103;BME280;43999;51.660;5.616;2022-11-20T12:18:20;100665.88;;;1.91;100.00
59103;BME280;43999;51.660;5.616;2022-11-20T12:21:02;100656.31;;;1.94;100.00
59103;BME280;43999;51.660;5.616;2022-11-20T12:30:14;100629.44;;;2.03;100.00
59103;BME280;43999;51.660;5.616;2022-11-20T12:45:14;100601.59;;;2.14;100.00
59103;BME280;43999;51.660;5.616;2022-11-20T12:57:33;100590.97;;;2.27;100.00
59103;BME280;43999;51.660;5.616;2022-11-20T13:00:19;100579.84;;;2.25;100.00
59103;BME280;43999;51.660;5.616;2022-11-20T13:08:55;100560.34;;;2.46;100.00
59103;BME280;43999;51.660;5.616;2022-11-20T13:11:36;100555.88;;;2.53;100.00
59103;BME280;43999;51.660;5.616;2022-11-20T13:19:56;100539.66;;;2.79;100.00
59103;BME280;43999;51.660;5.616;2022-11-20T13:22:50;100540.56;;;2.78;100.00
59103;BME280;43999;51.660;5.616;2022-11-20T13:25:28;100519.84;;;2.79;100.00
59103;BME280;43999;51.660;5.616;2022-11-20T13:28:01;100523.25;;;2.80;100.00
59103;BME280;43999;51.660;5.616;2022-11-20T13:30:32;100519.66;;;2.85;100.00
59103;BME280;43999;51.660;5.616;2022-11-20T13:33:08;100514.44;;;2.87;100.00
59103;BME280;43999;51.660;5.616;2022-11-20T13:36:05;100508.31;;;2.90;100.00
59103;BME280;43999;51.660;5.616;2022-11-20T13:38:53;100505.91;;;2.83;100.00
59103;BME280;43999;51.660;5.616;2022-11-20T13:41:38;100499.09;;;2.81;100.00
59103;BME280;43999;51.660;5.616;2022-11-20T13:44:15;100491.31;;;2.81;100.00
59103;BME280;43999;51.660;5.616;2022-11-20T13:46:52;100483.41;;;2.87;100.00
59103;BME280;43999;51.660;5.616;2022-11-20T13:49:39;100460.94;;;2.87;100.00
59103;BME280;43999;51.660;5.616;2022-11-20T13:56:14;100458.13;;;2.95;100.00
59103;BME280;43999;51.660;5.616;2022-11-20T14:01:54;100455.56;;;2.95;100.00
59103;BME280;43999;51.660;5.616;2022-11-20T14:04:33;100445.38;;;2.89;100.00
59103;BME280;43999;51.660;5.616;2022-11-20T14:07:06;100453.94;;;2.91;100.00
59103;BME280;43999;51.660;5.616;2022-11-20T14:09:34;100447.88;;;2.92;100.00
59103;BME280;43999;51.660;5.616;2022-11-20T14:12:03;100452.25;;;2.90;100.00
59103;BME280;43999;51.660;5.616;2022-11-20T14:14:50;100447.00;;;2.93;100.00
59103;BME280;43999;51.660;5.616;2022-11-20T14:17:22;100441.03;;;2.90;100.00
59103;BME280;43999;51.660;5.616;2022-11-20T14:19:53;100432.25;;;2.95;100.00
59103;BME280;43999;51.660;5.616;2022-11-20T14:22:26;100430.56;;;2.94;100.00
59103;BME280;43999;51.660;5.616;2022-11-20T14:25:23;100426.84;;;3.03;100.00
59103;BME280;43999;51.660;5.616;2022-11-20T14:28:00;100428.69;;;2.99;100.00
59103;BME280;43999;51.660;5.616;2022-11-20T14:30:44;100421.84;;;2.97;100.00
59103;BME280;43999;51.660;5.616;2022-11-20T14:33:14;100415.88;;;2.95;100.00
59103;BME280;43999;51.660;5.616;2022-11-20T14:35:54;100411.59;;;2.94;100.00
59103;BME280;43999;51.660;5.616;2022-11-20T14:38:29;100410.66;;;2.96;100.00
59103;BME280;43999;51.660;5.616;2022-11-20T14:41:19;100396.63;;;3.03;100.00
59103;BME280;43999;51.660;5.616;2022-11-20T14:43:59;100393.22;;;3.03;100.00
59103;BME280;43999;51.660;5.616;2022-11-20T14:46:30;100395.88;;;3.00;100.00
59103;BME280;43999;51.660;5.616;2022-11-20T14:49:01;100395.97;;;2.97;100.00
59103;BME280;43999;51.660;5.616;2022-11-20T14:51:34;100383.00;;;2.98;100.00
59103;BME280;43999;51.660;5.616;2022-11-20T14:54:18;100385.34;;;3.06;100.00
59103;BME280;43999;51.660;5.616;2022-11-20T14:59:34;100372.72;;;2.95;100.00
59103;BME280;43999;51.660;5.616;2022-11-20T15:02:12;100372.69;;;2.97;100.00
59103;BME280;43999;51.660;5.616;2022-11-20T15:04:56;100367.50;;;2.97;100.00
59103;BME280;43999;51.660;5.616;2022-11-20T15:07:32;100368.47;;;2.93;100.00
59103;BME280;43999;51.660;5.616;2022-11-20T15:10:12;100347.78;;;2.93;100.00
59103;BME280;43999;51.660;5.616;2022-11-20T15:12:54;100347.00;;;2.91;100.00
59103;BME280;43999;51.660;5.616;2022-11-20T15:15:36;100342.69;;;2.90;100.00
59103;BME280;43999;51.660;5.616;2022-11-20T15:21:15;100334.00;;;2.92;100.00